sensor_id;sensor_type;location;lat;lon;timestamp;P1;durP1;ratioP1;P2;durP2;ratioP2
37973;SDS011;23796;51.458;7.000;2022-09-06T00:00:55;4.78;;;1.70;;
37973;SDS011;23796;51.458;7.000;2022-09-06T00:03:21;5.05;;;1.73;;
37973;SDS011;23796;51.458;7.000;2022-09-06T00:05:49;3.70;;;2.00;;
37973;SDS011;23796;51.458;7.000;2022-09-06T00:08:17;4.85;;;2.08;;
37973;SDS011;23796;51.458;7.000;2022-09-06T00:10:43;3.72;;;2.13;;
37973;SDS011;23796;51.458;7.000;2022-09-06T00:13:13;4.95;;;1.90;;
37973;SDS011;23796;51.458;7.000;2022-09-06T00:15:41;3.53;;;1.73;;
37973;SDS011;23796;51.458;7.000;2022-09-06T00:18:07;3.90;;;2.00;;
37973;SDS011;23796;51.458;7.000;2022-09-06T00:20:36;4.38;;;1.98;;
37973;SDS011;23796;51.458;7.000;2022-09-06T00:23:07;5.45;;;2.10;;
37973;SDS011;23796;51.458;7.000;2022-09-06T00:25:33;5.53;;;2.10;;
37973;SDS011;23796;51.458;7.000;2022-09-06T00:28:02;7.45;;;2.28;;
37973;SDS011;23796;51.458;7.000;2022-09-06T00:30:29;5.65;;;3.22;;
37973;SDS011;23796;51.458;7.000;2022-09-06T00:32:58;9.07;;;4.13;;
37973;SDS011;23796;51.458;7.000;2022-09-06T00:35:24;6.35;;;3.63;;
37973;SDS011;23796;51.458;7.000;2022-09-06T00:37:55;6.18;;;3.20;;
37973;SDS011;23796;51.458;7.000;2022-09-06T00:40:27;5.53;;;3.42;;
37973;SDS011;23796;51.458;7.000;2022-09-06T00:42:54;6.43;;;3.88;;
37973;SDS011;23796;51.458;7.000;2022-09-06T00:45:23;7.60;;;4.00;;
37973;SDS011;23796;51.458;7.000;2022-09-06T00:47:50;8.20;;;3.80;;
37973;SDS011;23796;51.458;7.000;2022-09-06T00:50:21;6.70;;;3.53;;
37973;SDS011;23796;51.458;7.000;2022-09-06T00:52:50;7.93;;;3.57;;
37973;SDS011;23796;51.458;7.000;2022-09-06T00:55:17;5.47;;;3.03;;
37973;SDS011;23796;51.458;7.000;2022-09-06T00:57:46;5.70;;;3.05;;
37973;SDS011;23796;51.458;7.000;2022-09-06T01:00:15;7.28;;;3.72;;
37973;SDS011;23796;51.458;7.000;2022-09-06T01:02:44;10.30;;;3.50;;
37973;SDS011;23796;51.458;7.000;2022-09-06T01:05:10;6.97;;;3.53;;
37973;SDS011;23796;51.458;7.000;2022-09-06T01:16:07;7.57;;;3.28;;
37973;SDS011;23796;51.458;7.000;2022-09-06T01:30:02;8.45;;;2.58;;
37973;SDS011;23796;51.458;7.000;2022-09-06T01:35:19;4.60;;;2.42;;
37973;SDS011;23796;51.458;7.000;2022-09-06T01:38:02;7.07;;;2.78;;
37973;SDS011;23796;51.458;7.000;2022-09-06T01:40:29;7.30;;;3.10;;
37973;SDS011;23796;51.458;7.000;2022-09-06T01:42:58;5.75;;;2.60;;
37973;SDS011;23796;51.458;7.000;2022-09-06T01:48:21;5.90;;;2.40;;
37973;SDS011;23796;51.458;7.000;2022-09-06T02:01:37;4.37;;;2.37;;
37973;SDS011;23796;51.458;7.000;2022-09-06T02:06:46;7.20;;;2.33;;
37973;SDS011;23796;51.458;7.000;2022-09-06T02:09:20;8.38;;;2.72;;
37973;SDS011;23796;51.458;7.000;2022-09-06T02:11:50;8.18;;;2.58;;
37973;SDS011;23796;51.458;7.000;2022-09-06T02:14:26;6.63;;;2.40;;
37973;SDS011;23796;51.458;7.000;2022-09-06T02:17:00;9.93;;;3.00;;
37973;SDS011;23796;51.458;7.000;2022-09-06T02:19:38;6.53;;;2.63;;
37973;SDS011;23796;51.458;7.000;2022-09-06T02:22:32;9.55;;;2.63;;
37973;SDS011;23796;51.458;7.000;2022-09-06T02:25:03;7.82;;;2.10;;
37973;SDS011;23796;51.458;7.000;2022-09-06T02:27:33;6.60;;;2.60;;
37973;SDS011;23796;51.458;7.000;2022-09-06T02:30:01;5.15;;;2.22;;
37973;SDS011;23796;51.458;7.000;2022-09-06T02:32:29;5.53;;;2.45;;
37973;SDS011;23796;51.458;7.000;2022-09-06T02:35:04;9.00;;;2.92;;
37973;SDS011;23796;51.458;7.000;2022-09-06T02:37:37;5.93;;;2.28;;
37973;SDS011;23796;51.458;7.000;2022-09-06T02:40:08;7.60;;;2.47;;
37973;SDS011;23796;51.458;7.000;2022-09-06T02:42:38;5.93;;;2.35;;
37973;SDS011;23796;51.458;7.000;2022-09-06T02:45:05;6.10;;;2.28;;
37973;SDS011;23796;51.458;7.000;2022-09-06T02:47:34;4.90;;;2.72;;
37973;SDS011;23796;51.458;7.000;2022-09-06T02:50:02;4.10;;;1.90;;
37973;SDS011;23796;51.458;7.000;2022-09-06T02:52:28;5.53;;;2.35;;
37973;SDS011;23796;51.458;7.000;2022-09-06T02:54:54;5.05;;;2.22;;
37973;SDS011;23796;51.458;7.000;2022-09-06T02:57:19;3.97;;;2.15;;
37973;SDS011;23796;51.458;7.000;2022-09-06T02:59:45;10.73;;;5.15;;
37973;SDS011;23796;51.458;7.000;2022-09-06T03:02:10;7.53;;;3.22;;
37973;SDS011;23796;51.458;7.000;2022-09-06T03:04:38;4.93;;;3.00;;
37973;SDS011;23796;51.458;7.000;2022-09-06T03:07:06;6.47;;;2.25;;
37973;SDS011;23796;51.458;7.000;2022-09-06T03:09:34;5.43;;;2.38;;
37973;SDS011;23796;51.458;7.000;2022-09-06T03:12:04;4.13;;;2.40;;
37973;SDS011;23796;51.458;7.000;2022-09-06T03:14:32;6.22;;;2.60;;
37973;SDS011;23796;51.458;7.000;2022-09-06T03:16:59;4.00;;;2.42;;
37973;SDS011;23796;51.458;7.000;2022-09-06T03:19:26;7.68;;;3.00;;
37973;SDS011;23796;51.458;7.000;2022-09-06T03:21:54;4.85;;;2.22;;
37973;SDS011;23796;51.458;7.000;2022-09-06T03:24:20;4.95;;;2.70;;
37973;SDS011;23796;51.458;7.000;2022-09-06T03:26:45;5.82;;;2.85;;
37973;SDS011;23796;51.458;7.000;2022-09-06T03:29:16;5.07;;;2.35;;
37973;SDS011;23796;51.458;7.000;2022-09-06T03:31:44;5.82;;;2.70;;
37973;SDS011;23796;51.458;7.000;2022-09-06T03:34:09;8.15;;;2.90;;
37973;SDS011;23796;51.458;7.000;2022-09-06T03:36:35;5.13;;;2.53;;
37973;SDS011;23796;51.458;7.000;2022-09-06T03:39:00;7.68;;;2.88;;
37973;SDS011;23796;51.458;7.000;2022-09-06T03:41:28;5.18;;;2.50;;
37973;SDS011;23796;51.458;7.000;2022-09-06T03:43:54;6.68;;;2.55;;
37973;SDS011;23796;51.458;7.000;2022-09-06T03:46:20;7.05;;;3.33;;
37973;SDS011;23796;51.458;7.000;2022-09-06T03:48:45;5.68;;;2.70;;
37973;SDS011;23796;51.458;7.000;2022-09-06T03:51:13;5.85;;;2.90;;
37973;SDS011;23796;51.458;7.000;2022-09-06T03:53:39;6.57;;;3.10;;
37973;SDS011;23796;51.458;7.000;2022-09-06T03:56:07;6.05;;;2.90;;
37973;SDS011;23796;51.458;7.000;2022-09-06T03:58:35;4.97;;;2.70;;
37973;SDS011;23796;51.458;7.000;2022-09-06T04:01:06;5.65;;;2.50;;
37973;SDS011;23796;51.458;7.000;2022-09-06T04:03:36;7.03;;;3.00;;
37973;SDS011;23796;51.458;7.000;2022-09-06T04:06:03;5.88;;;2.75;;
37973;SDS011;23796;51.458;7.000;2022-09-06T04:08:32;6.05;;;2.40;;
37973;SDS011;23796;51.458;7.000;2022-09-06T04:11:00;6.47;;;3.03;;
37973;SDS011;23796;51.458;7.000;2022-09-06T04:13:30;7.10;;;2.22;;
37973;SDS011;23796;51.458;7.000;2022-09-06T04:15:57;8.35;;;3.20;;
37973;SDS011;23796;51.458;7.000;2022-09-06T04:18:23;7.32;;;2.80;;
37973;SDS011;23796;51.458;7.000;2022-09-06T04:20:49;19.92;;;5.65;;
37973;SDS011;23796;51.458;7.000;2022-09-06T04:23:19;11.55;;;3.75;;
37973;SDS011;23796;51.458;7.000;2022-09-06T04:25:45;6.43;;;3.13;;
37973;SDS011;23796;51.458;7.000;2022-09-06T04:28:17;5.88;;;3.10;;
37973;SDS011;23796;51.458;7.000;2022-09-06T04:30:44;4.15;;;2.60;;
37973;SDS011;23796;51.458;7.000;2022-09-06T04:33:15;4.90;;;3.40;;
37973;SDS011;23796;51.458;7.000;2022-09-06T04:35:40;7.15;;;3.05;;
37973;SDS011;23796;51.458;7.000;2022-09-06T04:38:08;8.60;;;3.40;;
37973;SDS011;23796;51.458;7.000;2022-09-06T04:40:36;6.05;;;3.42;;
37973;SDS011;23796;51.458;7.000;2022-09-06T04:43:04;6.65;;;3.20;;
37973;SDS011;23796;51.458;7.000;2022-09-06T04:45:30;9.15;;;3.20;;
37973;SDS011;23796;51.458;7.000;2022-09-06T04:47:58;5.70;;;3.47;;
37973;SDS011;23796;51.458;7.000;2022-09-06T04:50:25;7.97;;;3.28;;
37973;SDS011;23796;51.458;7.000;2022-09-06T04:52:51;9.90;;;3.70;;
37973;SDS011;23796;51.458;7.000;2022-09-06T04:55:19;6.20;;;2.78;;
37973;SDS011;23796;51.458;7.000;2022-09-06T04:57:45;6.80;;;3.75;;
37973;SDS011;23796;51.458;7.000;2022-09-06T05:00:10;6.35;;;3.28;;
37973;SDS011;23796;51.458;7.000;2022-09-06T05:02:36;7.07;;;3.58;;
37973;SDS011;23796;51.458;7.000;2022-09-06T05:05:04;6.60;;;3.60;;
37973;SDS011;23796;51.458;7.000;2022-09-06T05:07:31;8.73;;;3.60;;
37973;SDS011;23796;51.458;7.000;2022-09-06T05:09:59;7.45;;;3.50;;
37973;SDS011;23796;51.458;7.000;2022-09-06T05:12:27;8.25;;;3.75;;
37973;SDS011;23796;51.458;7.000;2022-09-06T05:14:52;7.07;;;3.40;;
37973;SDS011;23796;51.458;7.000;2022-09-06T05:17:18;8.48;;;4.00;;
37973;SDS011;23796;51.458;7.000;2022-09-06T05:19:43;7.18;;;3.20;;
37973;SDS011;23796;51.458;7.000;2022-09-06T05:22:10;6.97;;;3.60;;
37973;SDS011;23796;51.458;7.000;2022-09-06T05:24:39;6.00;;;3.33;;
37973;SDS011;23796;51.458;7.000;2022-09-06T05:27:07;6.60;;;3.13;;
37973;SDS011;23796;51.458;7.000;2022-09-06T05:29:36;11.90;;;3.85;;
37973;SDS011;23796;51.458;7.000;2022-09-06T05:32:04;7.63;;;3.75;;
37973;SDS011;23796;51.458;7.000;2022-09-06T05:34:30;6.97;;;3.35;;
37973;SDS011;23796;51.458;7.000;2022-09-06T05:36:56;7.80;;;3.25;;
37973;SDS011;23796;51.458;7.000;2022-09-06T05:39:21;5.45;;;3.20;;
37973;SDS011;23796;51.458;7.000;2022-09-06T05:41:47;9.55;;;3.67;;
37973;SDS011;23796;51.458;7.000;2022-09-06T05:44:13;9.65;;;3.50;;
37973;SDS011;23796;51.458;7.000;2022-09-06T05:46:42;10.15;;;5.47;;
37973;SDS011;23796;51.458;7.000;2022-09-06T05:49:09;12.32;;;3.85;;
37973;SDS011;23796;51.458;7.000;2022-09-06T05:51:38;7.93;;;3.53;;
37973;SDS011;23796;51.458;7.000;2022-09-06T05:54:09;9.57;;;3.15;;
37973;SDS011;23796;51.458;7.000;2022-09-06T05:56:40;5.55;;;3.25;;
37973;SDS011;23796;51.458;7.000;2022-09-06T05:59:07;7.65;;;3.20;;
37973;SDS011;23796;51.458;7.000;2022-09-06T06:01:33;12.48;;;4.00;;
37973;SDS011;23796;51.458;7.000;2022-09-06T06:04:00;12.15;;;3.42;;
37973;SDS011;23796;51.458;7.000;2022-09-06T06:06:28;15.50;;;4.65;;
37973;SDS011;23796;51.458;7.000;2022-09-06T06:08:58;13.75;;;3.30;;
37973;SDS011;23796;51.458;7.000;2022-09-06T06:11:25;7.80;;;3.17;;
37973;SDS011;23796;51.458;7.000;2022-09-06T06:13:54;5.38;;;2.65;;
37973;SDS011;23796;51.458;7.000;2022-09-06T06:16:23;8.55;;;3.03;;
37973;SDS011;23796;51.458;7.000;2022-09-06T06:18:51;5.45;;;2.50;;
37973;SDS011;23796;51.458;7.000;2022-09-06T06:21:21;9.02;;;2.95;;
37973;SDS011;23796;51.458;7.000;2022-09-06T06:23:52;5.53;;;2.83;;
37973;SDS011;23796;51.458;7.000;2022-09-06T06:26:24;5.30;;;2.63;;
37973;SDS011;23796;51.458;7.000;2022-09-06T06:28:51;9.95;;;2.78;;
37973;SDS011;23796;51.458;7.000;2022-09-06T06:31:17;5.05;;;2.13;;
37973;SDS011;23796;51.458;7.000;2022-09-06T06:33:45;5.57;;;2.22;;
37973;SDS011;23796;51.458;7.000;2022-09-06T06:38:40;8.07;;;2.75;;
37973;SDS011;23796;51.458;7.000;2022-09-06T06:41:07;4.93;;;2.30;;
37973;SDS011;23796;51.458;7.000;2022-09-06T06:43:34;11.93;;;2.97;;
37973;SDS011;23796;51.458;7.000;2022-09-06T06:46:05;6.03;;;2.67;;
37973;SDS011;23796;51.458;7.000;2022-09-06T06:48:32;8.68;;;2.22;;
37973;SDS011;23796;51.458;7.000;2022-09-06T06:50:59;8.88;;;4.22;;
37973;SDS011;23796;51.458;7.000;2022-09-06T06:53:25;11.35;;;2.80;;
37973;SDS011;23796;51.458;7.000;2022-09-06T06:55:51;7.43;;;1.92;;
37973;SDS011;23796;51.458;7.000;2022-09-06T06:58:16;8.13;;;2.20;;
37973;SDS011;23796;51.458;7.000;2022-09-06T07:00:42;9.77;;;2.60;;
37973;SDS011;23796;51.458;7.000;2022-09-06T07:03:09;4.63;;;2.10;;
37973;SDS011;23796;51.458;7.000;2022-09-06T07:05:36;5.35;;;1.90;;
37973;SDS011;23796;51.458;7.000;2022-09-06T07:08:05;4.45;;;1.90;;
37973;SDS011;23796;51.458;7.000;2022-09-06T07:10:36;5.75;;;2.00;;
37973;SDS011;23796;51.458;7.000;2022-09-06T07:13:06;5.03;;;2.35;;
37973;SDS011;23796;51.458;7.000;2022-09-06T07:15:34;6.70;;;2.00;;
37973;SDS011;23796;51.458;7.000;2022-09-06T07:18:02;5.15;;;1.85;;
37973;SDS011;23796;51.458;7.000;2022-09-06T07:20:30;10.70;;;2.42;;
37973;SDS011;23796;51.458;7.000;2022-09-06T07:22:59;4.53;;;1.60;;
37973;SDS011;23796;51.458;7.000;2022-09-06T07:25:32;5.85;;;2.00;;
37973;SDS011;23796;51.458;7.000;2022-09-06T07:28:02;4.15;;;1.70;;
37973;SDS011;23796;51.458;7.000;2022-09-06T07:30:35;4.75;;;1.42;;
37973;SDS011;23796;51.458;7.000;2022-09-06T07:33:02;2.67;;;1.30;;
37973;SDS011;23796;51.458;7.000;2022-09-06T07:35:33;6.10;;;1.90;;
37973;SDS011;23796;51.458;7.000;2022-09-06T07:37:59;9.02;;;7.07;;
37973;SDS011;23796;51.458;7.000;2022-09-06T07:40:26;4.95;;;2.00;;
37973;SDS011;23796;51.458;7.000;2022-09-06T07:42:57;3.70;;;1.50;;
37973;SDS011;23796;51.458;7.000;2022-09-06T07:45:23;4.53;;;2.03;;
37973;SDS011;23796;51.458;7.000;2022-09-06T07:47:53;7.65;;;5.97;;
37973;SDS011;23796;51.458;7.000;2022-09-06T07:50:22;4.97;;;2.00;;
37973;SDS011;23796;51.458;7.000;2022-09-06T07:52:49;4.20;;;1.42;;
37973;SDS011;23796;51.458;7.000;2022-09-06T07:55:15;4.85;;;1.60;;
37973;SDS011;23796;51.458;7.000;2022-09-06T07:57:45;5.95;;;1.50;;
37973;SDS011;23796;51.458;7.000;2022-09-06T08:00:11;6.75;;;1.10;;
37973;SDS011;23796;51.458;7.000;2022-09-06T08:02:39;2.05;;;0.90;;
37973;SDS011;23796;51.458;7.000;2022-09-06T08:05:04;3.92;;;1.10;;
37973;SDS011;23796;51.458;7.000;2022-09-06T08:07:30;5.75;;;1.20;;
37973;SDS011;23796;51.458;7.000;2022-09-06T08:09:56;3.75;;;1.00;;
37973;SDS011;23796;51.458;7.000;2022-09-06T08:12:21;6.40;;;1.20;;
37973;SDS011;23796;51.458;7.000;2022-09-06T08:14:53;4.63;;;1.00;;
37973;SDS011;23796;51.458;7.000;2022-09-06T08:17:19;3.28;;;1.15;;
37973;SDS011;23796;51.458;7.000;2022-09-06T08:19:45;5.97;;;1.13;;
37973;SDS011;23796;51.458;7.000;2022-09-06T08:22:10;2.60;;;0.90;;
37973;SDS011;23796;51.458;7.000;2022-09-06T08:24:36;4.45;;;1.33;;
37973;SDS011;23796;51.458;7.000;2022-09-06T08:27:02;4.65;;;1.15;;
37973;SDS011;23796;51.458;7.000;2022-09-06T08:29:31;2.55;;;1.30;;
37973;SDS011;23796;51.458;7.000;2022-09-06T08:31:58;3.55;;;1.10;;
37973;SDS011;23796;51.458;7.000;2022-09-06T08:34:26;4.47;;;1.10;;
37973;SDS011;23796;51.458;7.000;2022-09-06T08:36:52;4.25;;;1.30;;
37973;SDS011;23796;51.458;7.000;2022-09-06T08:39:22;3.97;;;1.38;;
37973;SDS011;23796;51.458;7.000;2022-09-06T08:44:38;4.22;;;1.02;;
37973;SDS011;23796;51.458;7.000;2022-09-06T08:47:06;2.80;;;1.00;;
37973;SDS011;23796;51.458;7.000;2022-09-06T08:54:51;2.85;;;1.08;;
37973;SDS011;23796;51.458;7.000;2022-09-06T09:00:23;2.92;;;0.90;;
37973;SDS011;23796;51.458;7.000;2022-09-06T09:02:53;3.58;;;0.90;;
37973;SDS011;23796;51.458;7.000;2022-09-06T09:05:27;4.13;;;1.35;;
37973;SDS011;23796;51.458;7.000;2022-09-06T09:10:50;2.50;;;0.93;;
37973;SDS011;23796;51.458;7.000;2022-09-06T09:13:42;4.78;;;1.17;;
37973;SDS011;23796;51.458;7.000;2022-09-06T09:16:14;3.33;;;1.05;;
37973;SDS011;23796;51.458;7.000;2022-09-06T09:18:44;4.97;;;1.85;;
37973;SDS011;23796;51.458;7.000;2022-09-06T09:21:13;3.22;;;1.35;;
37973;SDS011;23796;51.458;7.000;2022-09-06T09:23:44;2.47;;;0.93;;
37973;SDS011;23796;51.458;7.000;2022-09-06T09:26:17;2.90;;;1.23;;
37973;SDS011;23796;51.458;7.000;2022-09-06T09:34:05;2.33;;;0.68;;
37973;SDS011;23796;51.458;7.000;2022-09-06T09:36:38;4.22;;;2.70;;
37973;SDS011;23796;51.458;7.000;2022-09-06T09:39:07;3.00;;;0.80;;
37973;SDS011;23796;51.458;7.000;2022-09-06T09:41:35;2.42;;;0.73;;
37973;SDS011;23796;51.458;7.000;2022-09-06T09:44:15;2.55;;;0.90;;
37973;SDS011;23796;51.458;7.000;2022-09-06T09:46:42;2.33;;;0.93;;
37973;SDS011;23796;51.458;7.000;2022-09-06T09:52:02;2.30;;;1.13;;
37973;SDS011;23796;51.458;7.000;2022-09-06T09:54:36;3.85;;;0.90;;
37973;SDS011;23796;51.458;7.000;2022-09-06T09:57:09;1.85;;;0.82;;
37973;SDS011;23796;51.458;7.000;2022-09-06T09:59:45;4.22;;;1.00;;
37973;SDS011;23796;51.458;7.000;2022-09-06T10:05:03;4.00;;;1.45;;
37973;SDS011;23796;51.458;7.000;2022-09-06T10:07:49;2.90;;;1.63;;
37973;SDS011;23796;51.458;7.000;2022-09-06T10:10:28;2.95;;;1.10;;
37973;SDS011;23796;51.458;7.000;2022-09-06T10:15:44;3.08;;;1.40;;
37973;SDS011;23796;51.458;7.000;2022-09-06T10:20:47;3.22;;;1.00;;
37973;SDS011;23796;51.458;7.000;2022-09-06T10:26:35;2.75;;;0.80;;
37973;SDS011;23796;51.458;7.000;2022-09-06T10:29:03;3.45;;;1.10;;
37973;SDS011;23796;51.458;7.000;2022-09-06T10:34:14;3.55;;;0.80;;
37973;SDS011;23796;51.458;7.000;2022-09-06T10:37:11;4.00;;;0.88;;
37973;SDS011;23796;51.458;7.000;2022-09-06T10:50:19;6.00;;;3.17;;
37973;SDS011;23796;51.458;7.000;2022-09-06T10:52:46;3.55;;;1.40;;
37973;SDS011;23796;51.458;7.000;2022-09-06T10:55:14;4.05;;;1.90;;
37973;SDS011;23796;51.458;7.000;2022-09-06T10:57:46;3.53;;;1.17;;
37973;SDS011;23796;51.458;7.000;2022-09-06T11:00:19;4.20;;;0.95;;
37973;SDS011;23796;51.458;7.000;2022-09-06T11:05:46;3.28;;;1.35;;
37973;SDS011;23796;51.458;7.000;2022-09-06T11:08:20;5.25;;;1.13;;
37973;SDS011;23796;51.458;7.000;2022-09-06T11:10:52;3.40;;;1.20;;
37973;SDS011;23796;51.458;7.000;2022-09-06T11:13:22;2.53;;;1.30;;
37973;SDS011;23796;51.458;7.000;2022-09-06T11:26:58;5.55;;;1.15;;
37973;SDS011;23796;51.458;7.000;2022-09-06T11:29:26;3.05;;;1.10;;
37973;SDS011;23796;51.458;7.000;2022-09-06T11:31:55;4.70;;;1.38;;
37973;SDS011;23796;51.458;7.000;2022-09-06T11:42:00;4.57;;;1.10;;
37973;SDS011;23796;51.458;7.000;2022-09-06T11:55:16;2.13;;;0.75;;
37973;SDS011;23796;51.458;7.000;2022-09-06T12:00:19;4.28;;;1.00;;
37973;SDS011;23796;51.458;7.000;2022-09-06T12:02:48;3.42;;;1.00;;
37973;SDS011;23796;51.458;7.000;2022-09-06T12:05:16;3.33;;;1.23;;
37973;SDS011;23796;51.458;7.000;2022-09-06T12:15:58;4.13;;;1.10;;
37973;SDS011;23796;51.458;7.000;2022-09-06T12:24:05;2.72;;;1.15;;
37973;SDS011;23796;51.458;7.000;2022-09-06T12:26:51;4.40;;;1.00;;
37973;SDS011;23796;51.458;7.000;2022-09-06T12:32:28;3.63;;;1.17;;
37973;SDS011;23796;51.458;7.000;2022-09-06T12:34:59;2.15;;;0.90;;
37973;SDS011;23796;51.458;7.000;2022-09-06T12:37:32;2.88;;;1.20;;
37973;SDS011;23796;51.458;7.000;2022-09-06T12:40:13;4.28;;;1.50;;
37973;SDS011;23796;51.458;7.000;2022-09-06T12:42:41;3.42;;;1.33;;
37973;SDS011;23796;51.458;7.000;2022-09-06T12:45:12;3.38;;;1.05;;
37973;SDS011;23796;51.458;7.000;2022-09-06T12:47:41;4.75;;;2.00;;
37973;SDS011;23796;51.458;7.000;2022-09-06T12:52:46;4.70;;;1.50;;
37973;SDS011;23796;51.458;7.000;2022-09-06T12:57:57;5.40;;;1.30;;
37973;SDS011;23796;51.458;7.000;2022-09-06T13:00:30;6.53;;;2.13;;
37973;SDS011;23796;51.458;7.000;2022-09-06T13:05:47;4.45;;;1.60;;
37973;SDS011;23796;51.458;7.000;2022-09-06T13:08:14;3.72;;;1.50;;
37973;SDS011;23796;51.458;7.000;2022-09-06T13:10:52;3.10;;;1.15;;
37973;SDS011;23796;51.458;7.000;2022-09-06T13:13:23;4.50;;;1.30;;
37973;SDS011;23796;51.458;7.000;2022-09-06T13:15:52;4.63;;;1.45;;
37973;SDS011;23796;51.458;7.000;2022-09-06T13:21:06;6.80;;;1.83;;
37973;SDS011;23796;51.458;7.000;2022-09-06T13:23:43;4.60;;;1.52;;
37973;SDS011;23796;51.458;7.000;2022-09-06T13:26:13;8.63;;;1.77;;
37973;SDS011;23796;51.458;7.000;2022-09-06T13:28:55;4.00;;;1.40;;
37973;SDS011;23796;51.458;7.000;2022-09-06T13:31:23;6.13;;;1.40;;
37973;SDS011;23796;51.458;7.000;2022-09-06T13:33:58;2.88;;;1.33;;
37973;SDS011;23796;51.458;7.000;2022-09-06T13:36:28;5.85;;;1.50;;
37973;SDS011;23796;51.458;7.000;2022-09-06T13:38:59;3.97;;;1.70;;
37973;SDS011;23796;51.458;7.000;2022-09-06T13:41:34;3.22;;;1.20;;
37973;SDS011;23796;51.458;7.000;2022-09-06T13:46:40;6.25;;;1.67;;
37973;SDS011;23796;51.458;7.000;2022-09-06T13:49:05;3.42;;;1.20;;
37973;SDS011;23796;51.458;7.000;2022-09-06T13:51:33;4.43;;;1.48;;
37973;SDS011;23796;51.458;7.000;2022-09-06T13:54:10;5.20;;;1.30;;
37973;SDS011;23796;51.458;7.000;2022-09-06T13:56:40;3.65;;;1.40;;
37973;SDS011;23796;51.458;7.000;2022-09-06T13:59:09;4.50;;;1.40;;
37973;SDS011;23796;51.458;7.000;2022-09-06T14:01:39;5.05;;;1.30;;
37973;SDS011;23796;51.458;7.000;2022-09-06T14:04:09;2.90;;;1.23;;
37973;SDS011;23796;51.458;7.000;2022-09-06T14:06:39;3.63;;;1.23;;
37973;SDS011;23796;51.458;7.000;2022-09-06T14:09:05;4.72;;;1.48;;
37973;SDS011;23796;51.458;7.000;2022-09-06T14:11:31;4.10;;;1.30;;
37973;SDS011;23796;51.458;7.000;2022-09-06T14:14:02;4.75;;;1.15;;
37973;SDS011;23796;51.458;7.000;2022-09-06T14:16:31;3.28;;;1.15;;
37973;SDS011;23796;51.458;7.000;2022-09-06T14:18:58;4.53;;;1.15;;
37973;SDS011;23796;51.458;7.000;2022-09-06T14:21:23;2.97;;;1.30;;
37973;SDS011;23796;51.458;7.000;2022-09-06T14:23:49;3.17;;;1.33;;
37973;SDS011;23796;51.458;7.000;2022-09-06T14:26:19;3.45;;;1.20;;
37973;SDS011;23796;51.458;7.000;2022-09-06T14:28:45;4.50;;;1.35;;
37973;SDS011;23796;51.458;7.000;2022-09-06T14:31:18;6.47;;;2.28;;
37973;SDS011;23796;51.458;7.000;2022-09-06T14:33:48;3.17;;;1.23;;
37973;SDS011;23796;51.458;7.000;2022-09-06T14:36:15;5.78;;;1.70;;
37973;SDS011;23796;51.458;7.000;2022-09-06T14:38:44;3.60;;;1.27;;
37973;SDS011;23796;51.458;7.000;2022-09-06T14:41:10;7.15;;;1.80;;
37973;SDS011;23796;51.458;7.000;2022-09-06T14:43:43;4.75;;;1.27;;
37973;SDS011;23796;51.458;7.000;2022-09-06T14:46:14;7.60;;;1.45;;
37973;SDS011;23796;51.458;7.000;2022-09-06T14:48:42;4.63;;;1.00;;
37973;SDS011;23796;51.458;7.000;2022-09-06T14:53:39;3.88;;;1.25;;
37973;SDS011;23796;51.458;7.000;2022-09-06T14:56:08;4.28;;;1.15;;
37973;SDS011;23796;51.458;7.000;2022-09-06T14:58:39;5.13;;;1.67;;
37973;SDS011;23796;51.458;7.000;2022-09-06T15:01:11;4.88;;;1.30;;
37973;SDS011;23796;51.458;7.000;2022-09-06T15:03:40;4.75;;;1.30;;
37973;SDS011;23796;51.458;7.000;2022-09-06T15:06:08;2.83;;;0.98;;
37973;SDS011;23796;51.458;7.000;2022-09-06T15:08:36;3.42;;;1.02;;
37973;SDS011;23796;51.458;7.000;2022-09-06T15:11:05;2.55;;;0.80;;
37973;SDS011;23796;51.458;7.000;2022-09-06T15:13:34;5.45;;;1.35;;
37973;SDS011;23796;51.458;7.000;2022-09-06T15:16:04;2.53;;;0.95;;
37973;SDS011;23796;51.458;7.000;2022-09-06T15:18:31;3.45;;;1.20;;
37973;SDS011;23796;51.458;7.000;2022-09-06T15:21:13;3.88;;;1.02;;
37973;SDS011;23796;51.458;7.000;2022-09-06T15:23:42;4.18;;;1.10;;
37973;SDS011;23796;51.458;7.000;2022-09-06T15:26:08;3.50;;;1.00;;
37973;SDS011;23796;51.458;7.000;2022-09-06T15:28:36;2.53;;;0.90;;
37973;SDS011;23796;51.458;7.000;2022-09-06T15:31:05;4.43;;;1.10;;
37973;SDS011;23796;51.458;7.000;2022-09-06T15:36:03;2.67;;;0.95;;
37973;SDS011;23796;51.458;7.000;2022-09-06T15:38:32;3.30;;;0.88;;
37973;SDS011;23796;51.458;7.000;2022-09-06T15:41:12;2.20;;;0.77;;
37973;SDS011;23796;51.458;7.000;2022-09-06T15:43:49;4.60;;;0.90;;
37973;SDS011;23796;51.458;7.000;2022-09-06T15:46:18;3.35;;;1.10;;
37973;SDS011;23796;51.458;7.000;2022-09-06T15:49:06;3.55;;;1.05;;
37973;SDS011;23796;51.458;7.000;2022-09-06T15:51:33;2.78;;;1.00;;
37973;SDS011;23796;51.458;7.000;2022-09-06T15:54:04;4.13;;;1.55;;
37973;SDS011;23796;51.458;7.000;2022-09-06T15:56:30;4.38;;;1.27;;
37973;SDS011;23796;51.458;7.000;2022-09-06T15:58:58;6.50;;;1.27;;
37973;SDS011;23796;51.458;7.000;2022-09-06T16:01:26;2.25;;;0.88;;
37973;SDS011;23796;51.458;7.000;2022-09-06T16:03:53;3.33;;;1.10;;
37973;SDS011;23796;51.458;7.000;2022-09-06T16:06:28;2.35;;;1.05;;
37973;SDS011;23796;51.458;7.000;2022-09-06T16:09:00;2.88;;;1.10;;
37973;SDS011;23796;51.458;7.000;2022-09-06T16:11:31;5.03;;;1.13;;
37973;SDS011;23796;51.458;7.000;2022-09-06T16:13:59;3.28;;;1.00;;
37973;SDS011;23796;51.458;7.000;2022-09-06T16:16:28;5.05;;;1.73;;
37973;SDS011;23796;51.458;7.000;2022-09-06T16:18:58;4.55;;;1.10;;
37973;SDS011;23796;51.458;7.000;2022-09-06T16:21:29;2.72;;;1.00;;
37973;SDS011;23796;51.458;7.000;2022-09-06T16:23:57;6.10;;;1.50;;
37973;SDS011;23796;51.458;7.000;2022-09-06T16:26:26;4.20;;;0.95;;
37973;SDS011;23796;51.458;7.000;2022-09-06T16:28:56;3.00;;;1.17;;
37973;SDS011;23796;51.458;7.000;2022-09-06T16:31:22;3.35;;;1.20;;
37973;SDS011;23796;51.458;7.000;2022-09-06T16:33:48;7.80;;;1.27;;
37973;SDS011;23796;51.458;7.000;2022-09-06T16:36:15;4.18;;;1.30;;
37973;SDS011;23796;51.458;7.000;2022-09-06T16:38:42;3.17;;;0.80;;
37973;SDS011;23796;51.458;7.000;2022-09-06T16:43:38;4.68;;;1.23;;
37973;SDS011;23796;51.458;7.000;2022-09-06T16:46:04;2.75;;;1.08;;
37973;SDS011;23796;51.458;7.000;2022-09-06T16:48:32;4.97;;;1.23;;
37973;SDS011;23796;51.458;7.000;2022-09-06T16:51:06;5.82;;;1.40;;
37973;SDS011;23796;51.458;7.000;2022-09-06T16:53:37;4.47;;;1.85;;
37973;SDS011;23796;51.458;7.000;2022-09-06T16:56:06;3.70;;;1.08;;
37973;SDS011;23796;51.458;7.000;2022-09-06T16:58:38;2.00;;;1.00;;
37973;SDS011;23796;51.458;7.000;2022-09-06T17:01:06;3.78;;;1.30;;
37973;SDS011;23796;51.458;7.000;2022-09-06T17:03:36;2.38;;;1.00;;
37973;SDS011;23796;51.458;7.000;2022-09-06T17:06:02;11.35;;;10.27;;
37973;SDS011;23796;51.458;7.000;2022-09-06T17:08:30;3.45;;;1.40;;
37973;SDS011;23796;51.458;7.000;2022-09-06T17:10:59;2.63;;;0.93;;
37973;SDS011;23796;51.458;7.000;2022-09-06T17:13:27;3.97;;;1.00;;
37973;SDS011;23796;51.458;7.000;2022-09-06T17:15:56;3.47;;;1.20;;
37973;SDS011;23796;51.458;7.000;2022-09-06T17:18:43;3.70;;;1.00;;
37973;SDS011;23796;51.458;7.000;2022-09-06T17:21:11;5.00;;;1.35;;
37973;SDS011;23796;51.458;7.000;2022-09-06T17:23:39;4.82;;;1.27;;
37973;SDS011;23796;51.458;7.000;2022-09-06T17:26:05;2.83;;;1.10;;
37973;SDS011;23796;51.458;7.000;2022-09-06T17:28:32;3.13;;;1.23;;
37973;SDS011;23796;51.458;7.000;2022-09-06T17:31:02;4.78;;;1.35;;
37973;SDS011;23796;51.458;7.000;2022-09-06T17:33:29;5.00;;;1.40;;
37973;SDS011;23796;51.458;7.000;2022-09-06T17:36:03;2.20;;;0.98;;
37973;SDS011;23796;51.458;7.000;2022-09-06T17:38:34;4.30;;;1.30;;
37973;SDS011;23796;51.458;7.000;2022-09-06T17:41:00;3.50;;;1.30;;